sensor_id;sensor_type;location;lat;lon;timestamp;P1;durP1;ratioP1;P2;durP2;ratioP2
78787;SDS011;68131;52.508;5.502;2023-11-21T00:00:17;7.82;;;4.03;;
78787;SDS011;68131;52.508;5.502;2023-11-21T00:02:46;10.00;;;4.47;;
78787;SDS011;68131;52.508;5.502;2023-11-21T00:05:17;8.85;;;4.47;;
78787;SDS011;68131;52.508;5.502;2023-11-21T00:07:49;11.55;;;4.47;;
78787;SDS011;68131;52.508;5.502;2023-11-21T00:10:20;10.00;;;4.35;;
78787;SDS011;68131;52.508;5.502;2023-11-21T00:12:49;9.68;;;4.55;;
78787;SDS011;68131;52.508;5.502;2023-11-21T00:15:20;7.50;;;4.07;;
78787;SDS011;68131;52.508;5.502;2023-11-21T00:17:50;8.45;;;3.92;;
78787;SDS011;68131;52.508;5.502;2023-11-21T00:20:23;7.57;;;3.50;;
78787;SDS011;68131;52.508;5.502;2023-11-21T00:22:55;13.90;;;4.50;;
78787;SDS011;68131;52.508;5.502;2023-11-21T00:25:30;7.15;;;3.38;;
78787;SDS011;68131;52.508;5.502;2023-11-21T00:27:59;6.22;;;3.70;;
78787;SDS011;68131;52.508;5.502;2023-11-21T00:30:29;6.50;;;3.35;;
78787;SDS011;68131;52.508;5.502;2023-11-21T00:32:59;7.97;;;4.40;;
78787;SDS011;68131;52.508;5.502;2023-11-21T00:35:30;9.35;;;3.60;;
78787;SDS011;68131;52.508;5.502;2023-11-21T00:37:59;3.33;;;2.45;;
78787;SDS011;68131;52.508;5.502;2023-11-21T00:40:31;11.13;;;4.22;;
78787;SDS011;68131;52.508;5.502;2023-11-21T00:43:00;10.77;;;3.92;;
78787;SDS011;68131;52.508;5.502;2023-11-21T00:45:29;8.98;;;3.90;;
78787;SDS011;68131;52.508;5.502;2023-11-21T00:47:59;10.15;;;4.97;;
78787;SDS011;68131;52.508;5.502;2023-11-21T00:50:32;7.63;;;3.78;;
78787;SDS011;68131;52.508;5.502;2023-11-21T00:53:03;5.22;;;3.15;;
78787;SDS011;68131;52.508;5.502;2023-11-21T00:55:39;8.40;;;3.45;;
78787;SDS011;68131;52.508;5.502;2023-11-21T00:58:11;9.98;;;4.07;;
78787;SDS011;68131;52.508;5.502;2023-11-21T01:00:42;9.00;;;4.32;;
78787;SDS011;68131;52.508;5.502;2023-11-21T01:03:14;9.38;;;3.85;;
78787;SDS011;68131;52.508;5.502;2023-11-21T01:05:45;9.68;;;3.95;;
78787;SDS011;68131;52.508;5.502;2023-11-21T01:08:18;9.50;;;4.82;;
78787;SDS011;68131;52.508;5.502;2023-11-21T01:10:49;6.93;;;3.92;;
78787;SDS011;68131;52.508;5.502;2023-11-21T01:13:19;10.48;;;3.55;;
78787;SDS011;68131;52.508;5.502;2023-11-21T01:15:50;7.78;;;3.05;;
78787;SDS011;68131;52.508;5.502;2023-11-21T01:18:29;5.65;;;3.03;;
78787;SDS011;68131;52.508;5.502;2023-11-21T01:20:58;9.98;;;4.28;;
78787;SDS011;68131;52.508;5.502;2023-11-21T01:23:27;9.15;;;3.85;;
78787;SDS011;68131;52.508;5.502;2023-11-21T01:26:01;8.82;;;3.50;;
78787;SDS011;68131;52.508;5.502;2023-11-21T01:28:31;7.85;;;3.72;;
78787;SDS011;68131;52.508;5.502;2023-11-21T01:31:02;4.68;;;2.78;;
78787;SDS011;68131;52.508;5.502;2023-11-21T01:33:32;8.45;;;3.45;;
78787;SDS011;68131;52.508;5.502;2023-11-21T01:36:02;11.00;;;3.95;;
78787;SDS011;68131;52.508;5.502;2023-11-21T01:38:35;7.60;;;3.53;;
78787;SDS011;68131;52.508;5.502;2023-11-21T01:41:07;8.90;;;3.88;;
78787;SDS011;68131;52.508;5.502;2023-11-21T01:43:39;8.48;;;3.67;;
78787;SDS011;68131;52.508;5.502;2023-11-21T01:46:09;6.85;;;3.13;;
78787;SDS011;68131;52.508;5.502;2023-11-21T01:48:41;6.68;;;2.95;;
78787;SDS011;68131;52.508;5.502;2023-11-21T01:51:10;6.97;;;3.75;;
78787;SDS011;68131;52.508;5.502;2023-11-21T01:53:43;7.13;;;2.95;;
78787;SDS011;68131;52.508;5.502;2023-11-21T01:56:15;6.50;;;3.28;;
78787;SDS011;68131;52.508;5.502;2023-11-21T01:58:51;6.18;;;3.45;;
78787;SDS011;68131;52.508;5.502;2023-11-21T02:01:21;7.97;;;3.22;;
78787;SDS011;68131;52.508;5.502;2023-11-21T02:03:52;6.82;;;3.50;;
78787;SDS011;68131;52.508;5.502;2023-11-21T02:06:27;8.15;;;3.17;;
78787;SDS011;68131;52.508;5.502;2023-11-21T02:09:01;8.60;;;3.05;;
78787;SDS011;68131;52.508;5.502;2023-11-21T02:11:48;6.82;;;3.30;;
78787;SDS011;68131;52.508;5.502;2023-11-21T02:14:17;5.85;;;2.65;;
78787;SDS011;68131;52.508;5.502;2023-11-21T02:16:48;6.30;;;2.97;;
78787;SDS011;68131;52.508;5.502;2023-11-21T02:19:19;7.10;;;2.22;;
78787;SDS011;68131;52.508;5.502;2023-11-21T02:21:51;4.45;;;2.80;;
78787;SDS011;68131;52.508;5.502;2023-11-21T02:24:32;7.85;;;2.88;;
78787;SDS011;68131;52.508;5.502;2023-11-21T02:27:03;4.82;;;2.40;;
78787;SDS011;68131;52.508;5.502;2023-11-21T02:29:32;5.30;;;2.92;;
78787;SDS011;68131;52.508;5.502;2023-11-21T02:32:06;5.05;;;2.88;;
78787;SDS011;68131;52.508;5.502;2023-11-21T02:34:36;2.85;;;1.98;;
78787;SDS011;68131;52.508;5.502;2023-11-21T02:37:06;5.00;;;2.45;;
78787;SDS011;68131;52.508;5.502;2023-11-21T02:39:38;7.28;;;2.85;;
78787;SDS011;68131;52.508;5.502;2023-11-21T02:42:07;6.95;;;2.75;;
78787;SDS011;68131;52.508;5.502;2023-11-21T02:44:36;3.88;;;2.30;;
78787;SDS011;68131;52.508;5.502;2023-11-21T02:47:14;7.13;;;2.25;;
78787;SDS011;68131;52.508;5.502;2023-11-21T02:49:44;5.35;;;3.13;;
78787;SDS011;68131;52.508;5.502;2023-11-21T02:52:20;3.47;;;2.13;;
78787;SDS011;68131;52.508;5.502;2023-11-21T02:54:52;5.43;;;1.85;;
78787;SDS011;68131;52.508;5.502;2023-11-21T02:57:24;5.03;;;2.15;;
78787;SDS011;68131;52.508;5.502;2023-11-21T02:59:55;2.90;;;1.98;;
78787;SDS011;68131;52.508;5.502;2023-11-21T03:02:25;4.50;;;3.13;;
78787;SDS011;68131;52.508;5.502;2023-11-21T03:05:02;4.65;;;2.33;;
78787;SDS011;68131;52.508;5.502;2023-11-21T03:07:31;7.95;;;2.33;;
78787;SDS011;68131;52.508;5.502;2023-11-21T03:10:03;5.38;;;2.72;;
78787;SDS011;68131;52.508;5.502;2023-11-21T03:12:35;5.40;;;2.28;;
78787;SDS011;68131;52.508;5.502;2023-11-21T03:15:04;5.20;;;2.55;;
78787;SDS011;68131;52.508;5.502;2023-11-21T03:17:35;4.70;;;2.45;;
78787;SDS011;68131;52.508;5.502;2023-11-21T03:20:15;2.90;;;1.60;;
78787;SDS011;68131;52.508;5.502;2023-11-21T03:22:46;4.53;;;2.72;;
78787;SDS011;68131;52.508;5.502;2023-11-21T03:25:17;3.80;;;2.40;;
78787;SDS011;68131;52.508;5.502;2023-11-21T03:27:54;10.45;;;3.15;;
78787;SDS011;68131;52.508;5.502;2023-11-21T03:30:23;4.22;;;2.63;;
78787;SDS011;68131;52.508;5.502;2023-11-21T03:32:58;5.68;;;2.45;;
78787;SDS011;68131;52.508;5.502;2023-11-21T03:35:29;7.22;;;2.88;;
78787;SDS011;68131;52.508;5.502;2023-11-21T03:37:58;5.47;;;2.60;;
78787;SDS011;68131;52.508;5.502;2023-11-21T03:40:31;5.53;;;2.95;;
78787;SDS011;68131;52.508;5.502;2023-11-21T03:43:01;6.90;;;2.50;;
78787;SDS011;68131;52.508;5.502;2023-11-21T03:45:30;5.18;;;2.35;;
78787;SDS011;68131;52.508;5.502;2023-11-21T03:47:59;13.18;;;2.25;;
78787;SDS011;68131;52.508;5.502;2023-11-21T03:50:28;3.17;;;2.15;;
78787;SDS011;68131;52.508;5.502;2023-11-21T03:52:58;5.70;;;2.65;;
78787;SDS011;68131;52.508;5.502;2023-11-21T03:55:31;5.05;;;2.28;;
78787;SDS011;68131;52.508;5.502;2023-11-21T03:58:00;5.85;;;2.22;;
78787;SDS011;68131;52.508;5.502;2023-11-21T04:00:31;3.65;;;2.33;;
78787;SDS011;68131;52.508;5.502;2023-11-21T04:03:05;5.32;;;2.63;;
78787;SDS011;68131;52.508;5.502;2023-11-21T04:05:40;5.55;;;2.38;;
78787;SDS011;68131;52.508;5.502;2023-11-21T04:08:09;6.43;;;2.20;;
78787;SDS011;68131;52.508;5.502;2023-11-21T04:10:41;3.67;;;2.55;;
78787;SDS011;68131;52.508;5.502;2023-11-21T04:13:12;7.22;;;2.53;;
78787;SDS011;68131;52.508;5.502;2023-11-21T04:15:42;8.80;;;2.42;;
78787;SDS011;68131;52.508;5.502;2023-11-21T04:18:11;2.97;;;2.00;;
78787;SDS011;68131;52.508;5.502;2023-11-21T04:20:41;4.65;;;1.88;;
78787;SDS011;68131;52.508;5.502;2023-11-21T04:23:12;6.05;;;1.50;;
78787;SDS011;68131;52.508;5.502;2023-11-21T04:25:49;12.20;;;2.13;;
78787;SDS011;68131;52.508;5.502;2023-11-21T04:28:21;3.75;;;2.20;;
78787;SDS011;68131;52.508;5.502;2023-11-21T04:30:51;2.50;;;1.88;;
78787;SDS011;68131;52.508;5.502;2023-11-21T04:33:22;6.38;;;2.22;;
78787;SDS011;68131;52.508;5.502;2023-11-21T04:35:53;7.22;;;1.48;;
78787;SDS011;68131;52.508;5.502;2023-11-21T04:38:29;3.35;;;1.77;;
78787;SDS011;68131;52.508;5.502;2023-11-21T04:41:01;3.22;;;1.83;;
78787;SDS011;68131;52.508;5.502;2023-11-21T04:43:33;4.30;;;1.65;;
78787;SDS011;68131;52.508;5.502;2023-11-21T04:46:02;2.47;;;1.38;;
78787;SDS011;68131;52.508;5.502;2023-11-21T04:48:34;2.10;;;0.98;;
78787;SDS011;68131;52.508;5.502;2023-11-21T04:51:04;2.58;;;1.25;;
78787;SDS011;68131;52.508;5.502;2023-11-21T04:53:33;2.67;;;1.13;;
78787;SDS011;68131;52.508;5.502;2023-11-21T04:56:09;1.73;;;0.80;;
78787;SDS011;68131;52.508;5.502;2023-11-21T04:58:38;1.60;;;0.93;;
78787;SDS011;68131;52.508;5.502;2023-11-21T05:01:08;1.08;;;0.68;;
78787;SDS011;68131;52.508;5.502;2023-11-21T05:03:40;1.42;;;0.80;;
78787;SDS011;68131;52.508;5.502;2023-11-21T05:06:09;1.35;;;0.70;;
78787;SDS011;68131;52.508;5.502;2023-11-21T05:08:39;3.15;;;1.35;;
78787;SDS011;68131;52.508;5.502;2023-11-21T05:11:11;1.02;;;0.68;;
78787;SDS011;68131;52.508;5.502;2023-11-21T05:13:43;1.70;;;0.50;;
78787;SDS011;68131;52.508;5.502;2023-11-21T05:16:13;3.67;;;0.90;;
78787;SDS011;68131;52.508;5.502;2023-11-21T05:18:42;1.35;;;0.88;;
78787;SDS011;68131;52.508;5.502;2023-11-21T05:21:11;1.20;;;0.73;;
78787;SDS011;68131;52.508;5.502;2023-11-21T05:23:40;1.45;;;0.80;;
78787;SDS011;68131;52.508;5.502;2023-11-21T05:26:14;3.13;;;0.80;;
78787;SDS011;68131;52.508;5.502;2023-11-21T05:28:43;2.22;;;0.80;;
78787;SDS011;68131;52.508;5.502;2023-11-21T05:31:15;1.95;;;0.70;;
78787;SDS011;68131;52.508;5.502;2023-11-21T05:33:44;2.42;;;0.82;;
78787;SDS011;68131;52.508;5.502;2023-11-21T05:36:13;2.25;;;1.17;;
78787;SDS011;68131;52.508;5.502;2023-11-21T05:38:42;1.98;;;0.82;;
78787;SDS011;68131;52.508;5.502;2023-11-21T05:41:15;5.10;;;1.05;;
78787;SDS011;68131;52.508;5.502;2023-11-21T05:43:44;5.50;;;1.05;;
78787;SDS011;68131;52.508;5.502;2023-11-21T05:46:21;1.33;;;0.73;;
78787;SDS011;68131;52.508;5.502;2023-11-21T05:48:51;1.35;;;0.95;;
78787;SDS011;68131;52.508;5.502;2023-11-21T05:51:21;3.08;;;1.05;;
78787;SDS011;68131;52.508;5.502;2023-11-21T05:53:50;6.28;;;1.40;;
78787;SDS011;68131;52.508;5.502;2023-11-21T05:56:23;2.47;;;0.60;;
78787;SDS011;68131;52.508;5.502;2023-11-21T05:58:55;3.45;;;0.70;;
78787;SDS011;68131;52.508;5.502;2023-11-21T06:01:28;3.15;;;0.90;;
78787;SDS011;68131;52.508;5.502;2023-11-21T06:03:57;2.00;;;0.85;;
78787;SDS011;68131;52.508;5.502;2023-11-21T06:06:29;1.38;;;0.80;;
78787;SDS011;68131;52.508;5.502;2023-11-21T06:08:58;1.60;;;0.63;;
78787;SDS011;68131;52.508;5.502;2023-11-21T06:11:30;3.75;;;0.80;;
78787;SDS011;68131;52.508;5.502;2023-11-21T06:14:00;2.20;;;0.70;;
78787;SDS011;68131;52.508;5.502;2023-11-21T06:16:33;1.42;;;0.63;;
78787;SDS011;68131;52.508;5.502;2023-11-21T06:19:07;2.78;;;0.70;;
78787;SDS011;68131;52.508;5.502;2023-11-21T06:21:36;2.08;;;0.85;;
78787;SDS011;68131;52.508;5.502;2023-11-21T06:24:06;1.95;;;0.70;;
78787;SDS011;68131;52.508;5.502;2023-11-21T06:26:39;2.80;;;1.38;;
78787;SDS011;68131;52.508;5.502;2023-11-21T06:29:09;1.40;;;0.73;;
78787;SDS011;68131;52.508;5.502;2023-11-21T06:31:39;2.08;;;0.82;;
78787;SDS011;68131;52.508;5.502;2023-11-21T06:34:09;1.15;;;0.65;;
78787;SDS011;68131;52.508;5.502;2023-11-21T06:36:39;1.02;;;0.73;;
78787;SDS011;68131;52.508;5.502;2023-11-21T06:39:11;2.78;;;0.90;;
78787;SDS011;68131;52.508;5.502;2023-11-21T06:41:45;1.58;;;0.82;;
78787;SDS011;68131;52.508;5.502;2023-11-21T06:44:14;2.15;;;1.02;;
78787;SDS011;68131;52.508;5.502;2023-11-21T06:46:46;1.92;;;0.93;;
78787;SDS011;68131;52.508;5.502;2023-11-21T06:49:15;2.08;;;1.25;;
78787;SDS011;68131;52.508;5.502;2023-11-21T06:51:44;4.97;;;1.85;;
78787;SDS011;68131;52.508;5.502;2023-11-21T06:54:13;1.55;;;1.20;;
78787;SDS011;68131;52.508;5.502;2023-11-21T06:56:45;3.38;;;1.80;;
78787;SDS011;68131;52.508;5.502;2023-11-21T06:59:19;2.88;;;1.85;;
78787;SDS011;68131;52.508;5.502;2023-11-21T07:01:48;2.85;;;1.45;;
78787;SDS011;68131;52.508;5.502;2023-11-21T07:04:17;2.92;;;1.48;;
78787;SDS011;68131;52.508;5.502;2023-11-21T07:06:46;4.38;;;2.05;;
78787;SDS011;68131;52.508;5.502;2023-11-21T07:09:18;1.20;;;0.85;;
78787;SDS011;68131;52.508;5.502;2023-11-21T07:11:50;2.65;;;1.77;;
78787;SDS011;68131;52.508;5.502;2023-11-21T07:14:25;1.48;;;0.90;;
78787;SDS011;68131;52.508;5.502;2023-11-21T07:16:54;4.43;;;2.28;;
78787;SDS011;68131;52.508;5.502;2023-11-21T07:19:28;6.20;;;1.08;;
78787;SDS011;68131;52.508;5.502;2023-11-21T07:21:57;5.50;;;1.90;;
78787;SDS011;68131;52.508;5.502;2023-11-21T07:24:26;2.08;;;1.35;;
78787;SDS011;68131;52.508;5.502;2023-11-21T07:27:03;3.55;;;1.95;;
78787;SDS011;68131;52.508;5.502;2023-11-21T07:29:32;2.20;;;1.45;;
78787;SDS011;68131;52.508;5.502;2023-11-21T07:32:07;2.15;;;1.40;;
78787;SDS011;68131;52.508;5.502;2023-11-21T07:34:40;1.50;;;1.08;;
78787;SDS011;68131;52.508;5.502;2023-11-21T07:37:09;3.47;;;1.13;;
78787;SDS011;68131;52.508;5.502;2023-11-21T07:39:46;2.85;;;1.10;;
78787;SDS011;68131;52.508;5.502;2023-11-21T07:42:24;2.05;;;1.40;;
78787;SDS011;68131;52.508;5.502;2023-11-21T07:44:59;3.10;;;1.58;;
78787;SDS011;68131;52.508;5.502;2023-11-21T07:47:28;1.58;;;1.10;;
78787;SDS011;68131;52.508;5.502;2023-11-21T07:50:00;1.73;;;0.82;;
78787;SDS011;68131;52.508;5.502;2023-11-21T07:52:29;1.15;;;0.70;;
78787;SDS011;68131;52.508;5.502;2023-11-21T07:55:00;2.22;;;0.95;;
78787;SDS011;68131;52.508;5.502;2023-11-21T07:57:35;1.83;;;0.63;;
78787;SDS011;68131;52.508;5.502;2023-11-21T08:00:05;1.60;;;0.75;;
78787;SDS011;68131;52.508;5.502;2023-11-21T08:02:38;7.22;;;1.58;;
78787;SDS011;68131;52.508;5.502;2023-11-21T08:05:08;2.30;;;0.73;;
78787;SDS011;68131;52.508;5.502;2023-11-21T08:07:37;2.38;;;0.85;;
78787;SDS011;68131;52.508;5.502;2023-11-21T08:10:07;0.73;;;0.20;;
78787;SDS011;68131;52.508;5.502;2023-11-21T08:12:41;4.18;;;0.98;;
78787;SDS011;68131;52.508;5.502;2023-11-21T08:15:10;1.05;;;0.35;;
78787;SDS011;68131;52.508;5.502;2023-11-21T08:17:39;1.35;;;0.82;;
78787;SDS011;68131;52.508;5.502;2023-11-21T08:20:10;2.95;;;0.52;;
78787;SDS011;68131;52.508;5.502;2023-11-21T08:22:41;3.90;;;1.30;;
78787;SDS011;68131;52.508;5.502;2023-11-21T08:25:16;1.33;;;0.85;;
78787;SDS011;68131;52.508;5.502;2023-11-21T08:27:50;2.67;;;1.35;;
78787;SDS011;68131;52.508;5.502;2023-11-21T08:30:19;1.52;;;1.00;;
78787;SDS011;68131;52.508;5.502;2023-11-21T08:32:55;2.20;;;0.88;;
78787;SDS011;68131;52.508;5.502;2023-11-21T08:35:34;1.75;;;0.77;;
78787;SDS011;68131;52.508;5.502;2023-11-21T08:38:03;1.83;;;0.85;;
78787;SDS011;68131;52.508;5.502;2023-11-21T08:40:33;2.30;;;1.50;;
78787;SDS011;68131;52.508;5.502;2023-11-21T08:43:07;2.95;;;1.40;;
78787;SDS011;68131;52.508;5.502;2023-11-21T08:45:39;2.30;;;0.98;;
78787;SDS011;68131;52.508;5.502;2023-11-21T08:48:09;2.13;;;1.33;;
78787;SDS011;68131;52.508;5.502;2023-11-21T08:50:38;1.25;;;0.73;;
78787;SDS011;68131;52.508;5.502;2023-11-21T08:53:10;4.03;;;1.45;;
78787;SDS011;68131;52.508;5.502;2023-11-21T08:55:42;2.78;;;1.77;;
78787;SDS011;68131;52.508;5.502;2023-11-21T08:58:14;2.45;;;1.52;;
78787;SDS011;68131;52.508;5.502;2023-11-21T09:00:43;2.65;;;1.30;;
78787;SDS011;68131;52.508;5.502;2023-11-21T09:03:12;2.42;;;1.50;;
78787;SDS011;68131;52.508;5.502;2023-11-21T09:05:44;1.45;;;0.60;;
78787;SDS011;68131;52.508;5.502;2023-11-21T09:08:18;3.13;;;0.95;;
78787;SDS011;68131;52.508;5.502;2023-11-21T09:10:47;8.85;;;2.50;;
78787;SDS011;68131;52.508;5.502;2023-11-21T09:13:21;4.32;;;1.75;;
78787;SDS011;68131;52.508;5.502;2023-11-21T09:15:51;1.83;;;1.10;;
78787;SDS011;68131;52.508;5.502;2023-11-21T09:18:23;5.20;;;2.22;;
78787;SDS011;68131;52.508;5.502;2023-11-21T09:20:52;3.42;;;1.75;;
78787;SDS011;68131;52.508;5.502;2023-11-21T09:23:21;4.57;;;1.75;;
78787;SDS011;68131;52.508;5.502;2023-11-21T09:25:50;3.97;;;1.92;;
78787;SDS011;68131;52.508;5.502;2023-11-21T09:28:32;6.70;;;2.70;;
78787;SDS011;68131;52.508;5.502;2023-11-21T09:33:39;3.65;;;2.72;;
78787;SDS011;68131;52.508;5.502;2023-11-21T09:36:10;4.38;;;2.13;;
78787;SDS011;68131;52.508;5.502;2023-11-21T09:38:42;5.18;;;2.58;;
78787;SDS011;68131;52.508;5.502;2023-11-21T09:41:12;6.10;;;2.42;;
78787;SDS011;68131;52.508;5.502;2023-11-21T09:43:52;7.72;;;3.38;;
78787;SDS011;68131;52.508;5.502;2023-11-21T09:46:26;7.38;;;3.58;;
78787;SDS011;68131;52.508;5.502;2023-11-21T09:48:56;5.60;;;3.45;;
78787;SDS011;68131;52.508;5.502;2023-11-21T09:51:31;4.82;;;2.00;;
78787;SDS011;68131;52.508;5.502;2023-11-21T09:54:10;8.60;;;3.25;;
78787;SDS011;68131;52.508;5.502;2023-11-21T09:56:41;4.93;;;2.47;;
78787;SDS011;68131;52.508;5.502;2023-11-21T09:59:14;4.57;;;2.55;;
78787;SDS011;68131;52.508;5.502;2023-11-21T10:01:44;3.50;;;1.50;;
78787;SDS011;68131;52.508;5.502;2023-11-21T10:04:17;5.47;;;2.25;;
78787;SDS011;68131;52.508;5.502;2023-11-21T10:06:48;5.97;;;1.83;;
78787;SDS011;68131;52.508;5.502;2023-11-21T10:09:20;5.63;;;2.45;;
78787;SDS011;68131;52.508;5.502;2023-11-21T10:11:53;2.08;;;0.85;;
78787;SDS011;68131;52.508;5.502;2023-11-21T10:14:31;6.68;;;2.35;;
78787;SDS011;68131;52.508;5.502;2023-11-21T10:17:01;1.67;;;1.05;;
78787;SDS011;68131;52.508;5.502;2023-11-21T10:19:31;5.13;;;1.77;;
78787;SDS011;68131;52.508;5.502;2023-11-21T10:22:00;5.18;;;2.58;;
78787;SDS011;68131;52.508;5.502;2023-11-21T10:24:30;2.30;;;1.38;;
78787;SDS011;68131;52.508;5.502;2023-11-21T10:27:03;3.42;;;1.50;;
78787;SDS011;68131;52.508;5.502;2023-11-21T10:29:35;2.20;;;1.38;;
78787;SDS011;68131;52.508;5.502;2023-11-21T10:34:39;2.42;;;1.52;;
78787;SDS011;68131;52.508;5.502;2023-11-21T10:37:11;1.95;;;1.77;;
78787;SDS011;68131;52.508;5.502;2023-11-21T10:39:41;5.60;;;2.50;;
78787;SDS011;68131;52.508;5.502;2023-11-21T10:42:11;2.60;;;1.58;;
78787;SDS011;68131;52.508;5.502;2023-11-21T10:44:45;5.30;;;2.20;;
78787;SDS011;68131;52.508;5.502;2023-11-21T10:47:14;2.92;;;1.15;;
78787;SDS011;68131;52.508;5.502;2023-11-21T10:49:48;2.83;;;1.33;;
78787;SDS011;68131;52.508;5.502;2023-11-21T10:52:21;5.25;;;1.60;;
78787;SDS011;68131;52.508;5.502;2023-11-21T10:54:55;7.25;;;2.58;;
78787;SDS011;68131;52.508;5.502;2023-11-21T10:57:29;2.90;;;1.17;;
78787;SDS011;68131;52.508;5.502;2023-11-21T11:00:03;5.55;;;1.77;;
78787;SDS011;68131;52.508;5.502;2023-11-21T11:02:38;3.65;;;2.28;;
78787;SDS011;68131;52.508;5.502;2023-11-21T11:05:10;5.95;;;2.67;;
78787;SDS011;68131;52.508;5.502;2023-11-21T11:07:39;4.40;;;1.77;;
78787;SDS011;68131;52.508;5.502;2023-11-21T11:10:11;2.83;;;2.22;;
78787;SDS011;68131;52.508;5.502;2023-11-21T11:12:42;3.75;;;2.08;;
78787;SDS011;68131;52.508;5.502;2023-11-21T11:15:17;3.08;;;1.38;;
78787;SDS011;68131;52.508;5.502;2023-11-21T11:17:47;1.90;;;1.20;;
78787;SDS011;68131;52.508;5.502;2023-11-21T11:20:17;2.75;;;1.40;;
78787;SDS011;68131;52.508;5.502;2023-11-21T11:22:50;1.95;;;0.80;;
78787;SDS011;68131;52.508;5.502;2023-11-21T11:25:30;1.77;;;0.65;;
78787;SDS011;68131;52.508;5.502;2023-11-21T11:28:19;3.03;;;1.02;;
78787;SDS011;68131;52.508;5.502;2023-11-21T11:30:57;3.53;;;1.52;;
78787;SDS011;68131;52.508;5.502;2023-11-21T11:33:35;5.88;;;1.92;;
78787;SDS011;68131;52.508;5.502;2023-11-21T11:36:10;6.43;;;3.10;;
78787;SDS011;68131;52.508;5.502;2023-11-21T11:38:45;7.32;;;2.03;;
78787;SDS011;68131;52.508;5.502;2023-11-21T11:41:23;4.30;;;2.08;;
78787;SDS011;68131;52.508;5.502;2023-11-21T11:43:59;3.38;;;1.75;;
78787;SDS011;68131;52.508;5.502;2023-11-21T11:46:44;2.83;;;1.45;;
78787;SDS011;68131;52.508;5.502;2023-11-21T11:49:23;1.55;;;0.82;;
78787;SDS011;68131;52.508;5.502;2023-11-21T11:54:55;4.30;;;1.52;;
78787;SDS011;68131;52.508;5.502;2023-11-21T11:57:25;5.28;;;2.60;;
78787;SDS011;68131;52.508;5.502;2023-11-21T12:02:49;4.38;;;2.55;;
78787;SDS011;68131;52.508;5.502;2023-11-21T12:05:22;3.40;;;1.52;;
78787;SDS011;68131;52.508;5.502;2023-11-21T12:07:53;4.47;;;1.77;;
78787;SDS011;68131;52.508;5.502;2023-11-21T12:10:30;5.13;;;2.03;;
78787;SDS011;68131;52.508;5.502;2023-11-21T12:13:05;4.00;;;1.50;;
78787;SDS011;68131;52.508;5.502;2023-11-21T12:15:38;7.28;;;1.95;;
78787;SDS011;68131;52.508;5.502;2023-11-21T12:18:15;6.00;;;2.10;;
78787;SDS011;68131;52.508;5.502;2023-11-21T12:20:46;4.07;;;2.15;;
78787;SDS011;68131;52.508;5.502;2023-11-21T12:23:16;2.55;;;1.67;;
78787;SDS011;68131;52.508;5.502;2023-11-21T12:25:48;7.45;;;3.10;;
78787;SDS011;68131;52.508;5.502;2023-11-21T12:28:19;1.70;;;1.33;;
78787;SDS011;68131;52.508;5.502;2023-11-21T12:30:48;6.45;;;3.70;;
78787;SDS011;68131;52.508;5.502;2023-11-21T12:33:23;6.45;;;3.15;;
78787;SDS011;68131;52.508;5.502;2023-11-21T12:35:54;4.75;;;2.30;;
78787;SDS011;68131;52.508;5.502;2023-11-21T12:38:24;4.55;;;1.92;;
78787;SDS011;68131;52.508;5.502;2023-11-21T12:40:53;4.65;;;2.05;;
78787;SDS011;68131;52.508;5.502;2023-11-21T12:43:23;4.97;;;2.63;;
78787;SDS011;68131;52.508;5.502;2023-11-21T12:46:04;5.65;;;2.53;;
78787;SDS011;68131;52.508;5.502;2023-11-21T12:48:39;6.28;;;2.88;;
78787;SDS011;68131;52.508;5.502;2023-11-21T12:51:10;5.50;;;2.53;;
78787;SDS011;68131;52.508;5.502;2023-11-21T12:53:39;6.60;;;2.70;;
78787;SDS011;68131;52.508;5.502;2023-11-21T12:56:10;2.85;;;1.70;;
78787;SDS011;68131;52.508;5.502;2023-11-21T12:58:44;5.07;;;2.70;;
78787;SDS011;68131;52.508;5.502;2023-11-21T13:01:14;3.63;;;1.90;;
78787;SDS011;68131;52.508;5.502;2023-11-21T13:03:48;4.18;;;2.17;;
78787;SDS011;68131;52.508;5.502;2023-11-21T13:06:18;3.78;;;2.33;;
78787;SDS011;68131;52.508;5.502;2023-11-21T13:08:50;5.30;;;2.78;;
78787;SDS011;68131;52.508;5.502;2023-11-21T13:11:19;2.78;;;1.30;;
78787;SDS011;68131;52.508;5.502;2023-11-21T13:13:50;6.13;;;3.22;;
78787;SDS011;68131;52.508;5.502;2023-11-21T13:16:22;4.55;;;2.45;;
78787;SDS011;68131;52.508;5.502;2023-11-21T13:18:56;5.55;;;3.45;;
78787;SDS011;68131;52.508;5.502;2023-11-21T13:21:27;6.18;;;2.90;;
78787;SDS011;68131;52.508;5.502;2023-11-21T13:23:59;3.92;;;2.88;;
78787;SDS011;68131;52.508;5.502;2023-11-21T13:26:29;4.45;;;3.20;;
78787;SDS011;68131;52.508;5.502;2023-11-21T13:28:59;4.47;;;2.22;;
78787;SDS011;68131;52.508;5.502;2023-11-21T13:31:30;5.70;;;3.40;;
78787;SDS011;68131;52.508;5.502;2023-11-21T13:34:05;3.10;;;1.38;;
78787;SDS011;68131;52.508;5.502;2023-11-21T13:36:43;3.08;;;1.75;;
78787;SDS011;68131;52.508;5.502;2023-11-21T13:39:13;2.28;;;2.08;;
78787;SDS011;68131;52.508;5.502;2023-11-21T13:41:44;3.90;;;2.58;;
78787;SDS011;68131;52.508;5.502;2023-11-21T13:44:14;6.35;;;3.30;;
78787;SDS011;68131;52.508;5.502;2023-11-21T13:46:52;5.63;;;2.40;;
78787;SDS011;68131;52.508;5.502;2023-11-21T13:49:31;3.70;;;2.63;;
78787;SDS011;68131;52.508;5.502;2023-11-21T13:52:06;3.00;;;2.03;;
78787;SDS011;68131;52.508;5.502;2023-11-21T13:54:41;6.28;;;2.88;;
78787;SDS011;68131;52.508;5.502;2023-11-21T13:57:13;4.28;;;2.17;;
78787;SDS011;68131;52.508;5.502;2023-11-21T13:59:47;6.65;;;2.25;;
78787;SDS011;68131;52.508;5.502;2023-11-21T14:02:17;2.70;;;1.77;;
78787;SDS011;68131;52.508;5.502;2023-11-21T14:04:56;3.15;;;1.52;;
78787;SDS011;68131;52.508;5.502;2023-11-21T14:07:28;1.95;;;1.60;;
78787;SDS011;68131;52.508;5.502;2023-11-21T14:10:01;3.05;;;2.17;;
78787;SDS011;68131;52.508;5.502;2023-11-21T14:12:33;5.78;;;2.22;;
78787;SDS011;68131;52.508;5.502;2023-11-21T14:15:07;7.93;;;2.42;;
78787;SDS011;68131;52.508;5.502;2023-11-21T14:17:42;2.63;;;1.73;;
78787;SDS011;68131;52.508;5.502;2023-11-21T14:20:16;4.28;;;2.35;;
78787;SDS011;68131;52.508;5.502;2023-11-21T14:22:46;2.17;;;1.55;;
78787;SDS011;68131;52.508;5.502;2023-11-21T14:25:17;2.40;;;1.65;;
78787;SDS011;68131;52.508;5.502;2023-11-21T14:27:54;4.47;;;3.10;;
78787;SDS011;68131;52.508;5.502;2023-11-21T14:30:23;2.25;;;1.80;;
78787;SDS011;68131;52.508;5.502;2023-11-21T14:32:54;2.70;;;2.10;;
78787;SDS011;68131;52.508;5.502;2023-11-21T14:35:33;3.80;;;2.17;;
78787;SDS011;68131;52.508;5.502;2023-11-21T14:38:02;2.72;;;2.10;;
78787;SDS011;68131;52.508;5.502;2023-11-21T14:40:32;5.13;;;3.08;;
78787;SDS011;68131;52.508;5.502;2023-11-21T14:43:04;2.30;;;1.23;;
78787;SDS011;68131;52.508;5.502;2023-11-21T14:45:33;5.70;;;3.00;;
78787;SDS011;68131;52.508;5.502;2023-11-21T14:48:05;2.90;;;1.98;;
78787;SDS011;68131;52.508;5.502;2023-11-21T14:50:44;3.88;;;2.30;;
78787;SDS011;68131;52.508;5.502;2023-11-21T14:53:28;5.47;;;2.65;;
78787;SDS011;68131;52.508;5.502;2023-11-21T14:56:09;10.35;;;3.83;;
78787;SDS011;68131;52.508;5.502;2023-11-21T14:58:43;2.25;;;1.67;;
78787;SDS011;68131;52.508;5.502;2023-11-21T15:01:12;1.67;;;1.38;;
78787;SDS011;68131;52.508;5.502;2023-11-21T15:03:39;5.88;;;3.35;;
78787;SDS011;68131;52.508;5.502;2023-11-21T15:06:18;2.33;;;1.15;;
78787;SDS011;68131;52.508;5.502;2023-11-21T15:08:48;1.40;;;1.00;;
78787;SDS011;68131;52.508;5.502;2023-11-21T15:11:26;4.00;;;2.13;;
78787;SDS011;68131;52.508;5.502;2023-11-21T15:13:56;3.47;;;2.58;;
78787;SDS011;68131;52.508;5.502;2023-11-21T15:16:26;6.32;;;2.63;;
78787;SDS011;68131;52.508;5.502;2023-11-21T15:18:56;2.30;;;1.73;;
78787;SDS011;68131;52.508;5.502;2023-11-21T15:21:28;4.10;;;2.63;;
78787;SDS011;68131;52.508;5.502;2023-11-21T15:23:58;4.22;;;2.35;;
78787;SDS011;68131;52.508;5.502;2023-11-21T15:26:27;4.18;;;2.08;;